Time;durP1;ratioP1;P1;durP2;ratioP2;P2;SDS_P1;SDS_P2;PMS_P1;PMS_P2;Temp;Humidity;BMP_temperature;BMP_pressure;BME280_temperature;BME280_humidity;BME280_pressure;Samples;Min_cycle;Max_cycle;Signal;HPM_P1;HPM_P2
2023/09/21 00:02:01;;;;;;;8.25;3.85;;;;;;;;;;5076682;28;21239;-63
2023/09/21 00:04:27;;;;;;;7.83;3.40;;;;;;;;;;5065658;28;20024;-66
2023/09/21 00:06:55;;;;;;;6.18;3.22;;;;;;;;;;5061001;28;20032;-65
2023/09/21 00:09:20;;;;;;;6.32;4.00;;;;;;;;;;5072131;28;20088;-64
2023/09/21 00:11:45;;;;;;;6.63;3.63;;;;;;;;;;5077617;28;20032;-66
2023/09/21 00:14:11;;;;;;;9.75;4.20;;;;;;;;;;5088174;28;20278;-66
2023/09/21 00:16:36;;;;;;;9.27;4.23;;;;;;;;;;5056417;28;20392;-66
2023/09/21 00:19:06;;;;;;;9.60;3.80;;;;;;;;;;5062646;28;20250;-66
2023/09/21 00:21:32;;;;;;;7.57;3.90;;;;;;;;;;5052979;28;20277;-67
2023/09/21 00:24:00;;;;;;;7.03;3.90;;;;;;;;;;5053850;28;20930;-64
2023/09/21 00:26:27;;;;;;;8.55;3.83;;;;;;;;;;5078128;28;20247;-64
2023/09/21 00:28:53;;;;;;;7.60;3.65;;;;;;;;;;5073759;28;20040;-62
2023/09/21 00:31:19;;;;;;;6.72;4.07;;;;;;;;;;5083937;28;20020;-68
2023/09/21 00:33:44;;;;;;;7.13;3.85;;;;;;;;;;5068051;28;20028;-64
2023/09/21 00:36:13;;;;;;;7.07;3.70;;;;;;;;;;5070570;28;20021;-67
2023/09/21 00:38:38;;;;;;;7.20;3.95;;;;;;;;;;5078387;28;20255;-66
2023/09/21 00:41:07;;;;;;;7.53;3.78;;;;;;;;;;5076658;28;20078;-65
2023/09/21 00:43:32;;;;;;;6.70;3.67;;;;;;;;;;5058681;28;20041;-64
2023/09/21 00:46:01;;;;;;;8.30;4.10;;;;;;;;;;5079261;28;20056;-65
2023/09/21 00:48:33;;;;;;;10.18;4.10;;;;;;;;;;5079426;28;20067;-65
2023/09/21 00:51:05;;;;;;;8.90;3.80;;;;;;;;;;5077542;28;20032;-64
2023/09/21 00:53:30;;;;;;;6.25;3.35;;;;;;;;;;5073525;28;20110;-65
2023/09/21 00:55:56;;;;;;;7.13;3.30;;;;;;;;;;5079004;28;20020;-64
2023/09/21 00:58:23;;;;;;;6.75;3.38;;;;;;;;;;5058735;28;21058;-65
2023/09/21 01:00:49;;;;;;;7.45;3.55;;;;;;;;;;5061018;28;20103;-65
2023/09/21 01:03:15;;;;;;;6.53;3.40;;;;;;;;;;5077015;28;20073;-65
2023/09/21 01:05:43;;;;;;;6.78;3.53;;;;;;;;;;5074178;28;20016;-64
2023/09/21 01:08:10;;;;;;;7.32;3.30;;;;;;;;;;5072145;28;20081;-64
2023/09/21 01:10:42;;;;;;;6.70;3.45;;;;;;;;;;5075281;28;20113;-65
2023/09/21 01:13:07;;;;;;;7.25;3.92;;;;;;;;;;5072925;28;20375;-65
2023/09/21 01:15:35;;;;;;;6.70;3.58;;;;;;;;;;5078631;28;20016;-63
2023/09/21 01:18:02;;;;;;;8.55;3.63;;;;;;;;;;5059173;28;20032;-65
2023/09/21 01:20:29;;;;;;;7.25;3.83;;;;;;;;;;5074075;28;20027;-66
2023/09/21 01:22:55;;;;;;;8.38;3.83;;;;;;;;;;5081884;28;20540;-67
2023/09/21 01:25:22;;;;;;;6.73;3.87;;;;;;;;;;5056643;28;20035;-62
2023/09/21 01:27:51;;;;;;;7.07;4.03;;;;;;;;;;5056239;28;20086;-62
2023/09/21 01:30:16;;;;;;;7.82;3.95;;;;;;;;;;5055095;28;20384;-66
2023/09/21 01:32:42;;;;;;;7.57;4.30;;;;;;;;;;5057475;28;20024;-66
2023/09/21 01:35:08;;;;;;;7.73;3.90;;;;;;;;;;5063366;28;21026;-65
2023/09/21 01:37:35;;;;;;;6.90;4.03;;;;;;;;;;5076270;28;20024;-64
2023/09/21 01:40:00;;;;;;;7.53;3.95;;;;;;;;;;5071801;28;20020;-66
2023/09/21 01:42:25;;;;;;;7.57;3.77;;;;;;;;;;5076219;28;20372;-67
2023/09/21 01:44:51;;;;;;;7.63;4.10;;;;;;;;;;5078818;28;20280;-66
2023/09/21 01:47:20;;;;;;;8.13;4.18;;;;;;;;;;5067271;28;20300;-65
2023/09/21 01:49:45;;;;;;;9.95;4.30;;;;;;;;;;5074963;28;20852;-65
2023/09/21 01:52:13;;;;;;;8.30;4.23;;;;;;;;;;5071551;28;20463;-65
2023/09/21 01:54:40;;;;;;;8.02;4.40;;;;;;;;;;5079097;28;20072;-64
2023/09/21 01:57:08;;;;;;;6.53;3.75;;;;;;;;;;5081277;28;20032;-64
2023/09/21 01:59:33;;;;;;;6.68;3.53;;;;;;;;;;5090571;28;20022;-67
2023/09/21 02:01:58;;;;;;;7.18;4.07;;;;;;;;;;5092837;28;20035;-66
2023/09/21 02:04:24;;;;;;;7.15;3.83;;;;;;;;;;5097224;28;20016;-66
2023/09/21 02:06:49;;;;;;;8.50;3.80;;;;;;;;;;5102623;27;20027;-67
2023/09/21 02:09:15;;;;;;;8.25;4.05;;;;;;;;;;5096999;28;20028;-65
2023/09/21 02:11:43;;;;;;;8.13;3.95;;;;;;;;;;5075813;28;20026;-65
2023/09/21 02:14:08;;;;;;;7.13;3.70;;;;;;;;;;5092693;28;20721;-66
2023/09/21 02:16:33;;;;;;;8.50;4.17;;;;;;;;;;5074902;28;20023;-66
2023/09/21 02:19:01;;;;;;;7.03;4.15;;;;;;;;;;5095511;27;20020;-66
2023/09/21 02:21:26;;;;;;;7.00;3.60;;;;;;;;;;5088853;27;20027;-65
2023/09/21 02:23:52;;;;;;;7.30;4.03;;;;;;;;;;5089889;27;20844;-66
2023/09/21 02:26:17;;;;;;;7.05;3.90;;;;;;;;;;5071262;28;21188;-66
2023/09/21 02:28:45;;;;;;;8.17;4.30;;;;;;;;;;5089165;27;20046;-62
2023/09/21 02:31:11;;;;;;;7.75;3.95;;;;;;;;;;5071431;28;20274;-65
2023/09/21 02:33:42;;;;;;;7.18;3.78;;;;;;;;;;5085794;27;20054;-64
2023/09/21 02:36:19;;;;;;;8.82;4.20;;;;;;;;;;5093255;27;20015;-62
2023/09/21 02:38:44;;;;;;;7.18;3.63;;;;;;;;;;5073265;28;20020;-65
2023/09/21 02:41:09;;;;;;;7.30;3.83;;;;;;;;;;5090904;27;20038;-64
2023/09/21 02:43:34;;;;;;;9.00;4.37;;;;;;;;;;5076341;28;20041;-70
2023/09/21 02:46:00;;;;;;;7.53;4.10;;;;;;;;;;5071124;28;20032;-66
2023/09/21 02:48:25;;;;;;;7.70;4.00;;;;;;;;;;5052570;28;20286;-66
2023/09/21 02:50:50;;;;;;;7.33;3.93;;;;;;;;;;5055849;28;20669;-65
2023/09/21 02:53:15;;;;;;;8.30;4.00;;;;;;;;;;5068534;28;20591;-65
2023/09/21 02:55:47;;;;;;;8.73;4.40;;;;;;;;;;5073701;28;20024;-66
2023/09/21 02:58:15;;;;;;;7.65;3.92;;;;;;;;;;5073292;28;20054;-66
2023/09/21 03:00:42;;;;;;;6.63;3.90;;;;;;;;;;5071265;28;20016;-65
2023/09/21 03:03:10;;;;;;;7.13;3.90;;;;;;;;;;5054852;28;20840;-64
2023/09/21 03:05:38;;;;;;;6.57;4.10;;;;;;;;;;5068865;28;20035;-64
2023/09/21 03:08:05;;;;;;;7.28;4.22;;;;;;;;;;5051674;28;20023;-67
2023/09/21 03:10:36;;;;;;;6.80;3.97;;;;;;;;;;5072287;28;20043;-67
2023/09/21 03:13:02;;;;;;;9.95;4.20;;;;;;;;;;5070692;28;20029;-66
2023/09/21 03:15:27;;;;;;;8.18;3.85;;;;;;;;;;5060636;28;20019;-67
2023/09/21 03:17:55;;;;;;;6.40;4.20;;;;;;;;;;5075409;28;20034;-66
2023/09/21 03:20:28;;;;;;;6.35;3.65;;;;;;;;;;5057443;28;20024;-66
2023/09/21 03:22:54;;;;;;;7.45;4.00;;;;;;;;;;5077445;28;20906;-67
2023/09/21 03:25:25;;;;;;;6.20;3.80;;;;;;;;;;5058059;28;20020;-66
2023/09/21 03:27:50;;;;;;;7.93;4.43;;;;;;;;;;5076815;28;20114;-64
2023/09/21 03:30:16;;;;;;;7.93;4.15;;;;;;;;;;5077256;28;20032;-67
2023/09/21 03:32:44;;;;;;;8.27;4.25;;;;;;;;;;5057849;28;20025;-65
2023/09/21 03:35:11;;;;;;;6.57;3.63;;;;;;;;;;5055387;28;20623;-65
2023/09/21 03:37:38;;;;;;;7.55;3.55;;;;;;;;;;5055939;28;20486;-63
2023/09/21 03:40:04;;;;;;;6.22;3.50;;;;;;;;;;5063362;28;20781;-66
2023/09/21 03:42:32;;;;;;;6.72;3.67;;;;;;;;;;5060207;28;20597;-66
2023/09/21 03:45:00;;;;;;;8.32;4.20;;;;;;;;;;5057955;28;20028;-67
2023/09/21 03:47:25;;;;;;;6.45;4.05;;;;;;;;;;5076511;28;20063;-66
2023/09/21 03:49:50;;;;;;;8.57;4.10;;;;;;;;;;5058664;28;20382;-65
2023/09/21 03:52:18;;;;;;;8.18;4.03;;;;;;;;;;5054783;28;20268;-66
2023/09/21 03:54:46;;;;;;;9.05;4.15;;;;;;;;;;5056545;28;20536;-66
2023/09/21 03:57:14;;;;;;;8.25;3.85;;;;;;;;;;5071570;28;20054;-67
2023/09/21 03:59:40;;;;;;;8.30;3.95;;;;;;;;;;5056865;28;20179;-67
2023/09/21 04:02:08;;;;;;;9.38;3.95;;;;;;;;;;5063020;28;20459;-64
2023/09/21 04:04:36;;;;;;;7.57;3.92;;;;;;;;;;5096332;28;20439;-65
2023/09/21 04:07:01;;;;;;;9.73;4.40;;;;;;;;;;5077762;28;20020;-66
2023/09/21 04:09:27;;;;;;;7.18;3.92;;;;;;;;;;5073520;28;20699;-65
2023/09/21 04:11:52;;;;;;;7.25;3.97;;;;;;;;;;5058275;28;20110;-65
2023/09/21 04:14:17;;;;;;;8.67;4.37;;;;;;;;;;5057334;28;21167;-65
2023/09/21 04:16:45;;;;;;;6.73;4.10;;;;;;;;;;5076896;28;20262;-65
2023/09/21 04:19:14;;;;;;;6.32;4.00;;;;;;;;;;5075100;28;20071;-65
2023/09/21 04:21:41;;;;;;;7.50;3.53;;;;;;;;;;5056663;28;20694;-66
2023/09/21 04:24:08;;;;;;;9.25;3.90;;;;;;;;;;5061907;28;20019;-66
2023/09/21 04:26:33;;;;;;;8.15;3.60;;;;;;;;;;5075715;28;20043;-63
2023/09/21 04:28:58;;;;;;;6.70;3.50;;;;;;;;;;5072814;28;20111;-65
2023/09/21 04:31:24;;;;;;;7.35;3.80;;;;;;;;;;5074593;28;20048;-65
2023/09/21 04:33:49;;;;;;;6.10;4.00;;;;;;;;;;5080666;28;20028;-67
2023/09/21 04:36:14;;;;;;;6.07;3.67;;;;;;;;;;5058957;28;20255;-66
2023/09/21 04:38:39;;;;;;;7.13;3.88;;;;;;;;;;5058260;28;20028;-66
2023/09/21 04:41:05;;;;;;;8.23;3.87;;;;;;;;;;5059536;28;20093;-69
2023/09/21 04:43:32;;;;;;;7.45;4.13;;;;;;;;;;5071949;28;21047;-65
2023/09/21 04:46:02;;;;;;;7.97;3.60;;;;;;;;;;5056727;28;20100;-61
2023/09/21 04:48:31;;;;;;;7.93;3.92;;;;;;;;;;5058348;28;20471;-64
2023/09/21 04:51:02;;;;;;;9.98;4.07;;;;;;;;;;5074903;28;20032;-66
2023/09/21 04:53:27;;;;;;;7.05;4.20;;;;;;;;;;5064691;28;20467;-66
2023/09/21 04:55:52;;;;;;;6.00;3.70;;;;;;;;;;5068015;28;20028;-66
2023/09/21 04:58:19;;;;;;;8.02;3.92;;;;;;;;;;5076976;28;20333;-67
2023/09/21 05:00:44;;;;;;;6.63;3.70;;;;;;;;;;5075388;28;20012;-66
2023/09/21 05:03:10;;;;;;;7.00;4.00;;;;;;;;;;5076074;28;20033;-67
2023/09/21 05:05:35;;;;;;;7.80;4.10;;;;;;;;;;5078218;28;20042;-71
2023/09/21 05:08:03;;;;;;;7.53;4.10;;;;;;;;;;5081805;28;20020;-66
2023/09/21 05:10:29;;;;;;;8.52;4.32;;;;;;;;;;5059706;28;20265;-66
2023/09/21 05:12:55;;;;;;;7.63;4.25;;;;;;;;;;5061733;28;20024;-65
2023/09/21 05:15:23;;;;;;;8.00;4.18;;;;;;;;;;5066136;28;20085;-66
2023/09/21 05:17:48;;;;;;;9.85;4.05;;;;;;;;;;5071217;28;20492;-64
2023/09/21 05:20:15;;;;;;;8.93;4.07;;;;;;;;;;5070922;28;20028;-65
2023/09/21 05:22:45;;;;;;;7.20;4.65;;;;;;;;;;5058664;28;20078;-66
2023/09/21 05:25:10;;;;;;;8.13;3.88;;;;;;;;;;5058585;28;20047;-65
2023/09/21 05:27:36;;;;;;;7.05;4.18;;;;;;;;;;5074812;28;20054;-65
2023/09/21 05:30:04;;;;;;;7.03;4.05;;;;;;;;;;5060517;28;20043;-64
2023/09/21 05:32:29;;;;;;;8.07;4.03;;;;;;;;;;5079667;28;20016;-71
2023/09/21 05:34:56;;;;;;;8.73;4.43;;;;;;;;;;5093083;27;20043;-64
2023/09/21 05:37:22;;;;;;;9.10;4.40;;;;;;;;;;5078922;28;20088;-64
2023/09/21 05:39:48;;;;;;;7.75;4.00;;;;;;;;;;5073596;28;20023;-65
2023/09/21 05:42:15;;;;;;;6.50;4.15;;;;;;;;;;5056361;28;20170;-63
2023/09/21 05:44:43;;;;;;;7.15;3.35;;;;;;;;;;5052152;28;20031;-69
2023/09/21 05:47:11;;;;;;;6.88;3.40;;;;;;;;;;5068285;27;20044;-64
2023/09/21 05:49:37;;;;;;;6.57;3.60;;;;;;;;;;5048439;28;20028;-64
2023/09/21 05:52:08;;;;;;;6.05;3.33;;;;;;;;;;5056519;28;20043;-64
2023/09/21 05:54:33;;;;;;;6.95;3.83;;;;;;;;;;5074693;28;20023;-63
2023/09/21 05:57:00;;;;;;;8.68;3.38;;;;;;;;;;5085018;28;20015;-66
2023/09/21 05:59:26;;;;;;;6.68;3.28;;;;;;;;;;5048928;28;20088;-64
2023/09/21 06:01:51;;;;;;;7.45;3.63;;;;;;;;;;5052492;28;20360;-65
2023/09/21 06:04:21;;;;;;;5.63;3.37;;;;;;;;;;5068252;28;20028;-66
2023/09/21 06:06:46;;;;;;;10.00;3.53;;;;;;;;;;5070165;28;20015;-65
2023/09/21 06:09:18;;;;;;;8.77;3.75;;;;;;;;;;5079347;28;20448;-65
2023/09/21 06:11:43;;;;;;;7.03;3.47;;;;;;;;;;5080012;28;20019;-64
2023/09/21 06:14:09;;;;;;;8.10;3.63;;;;;;;;;;5077402;28;20776;-64
2023/09/21 06:16:36;;;;;;;10.23;3.60;;;;;;;;;;5070657;28;20345;-68
2023/09/21 06:19:01;;;;;;;5.20;2.83;;;;;;;;;;5068647;28;20775;-65
2023/09/21 06:21:30;;;;;;;7.70;3.53;;;;;;;;;;5061502;28;20024;-63
2023/09/21 06:23:58;;;;;;;8.57;3.95;;;;;;;;;;5066051;28;20375;-65
2023/09/21 06:26:23;;;;;;;8.70;3.78;;;;;;;;;;5065383;28;20181;-65
2023/09/21 06:28:49;;;;;;;7.13;3.77;;;;;;;;;;5076702;28;20119;-65
2023/09/21 06:31:21;;;;;;;7.05;3.97;;;;;;;;;;5067944;28;20667;-66
2023/09/21 06:33:49;;;;;;;8.57;4.22;;;;;;;;;;5057708;28;20023;-62
2023/09/21 06:36:20;;;;;;;7.75;3.92;;;;;;;;;;5057743;28;20410;-65
2023/09/21 06:38:46;;;;;;;7.10;4.07;;;;;;;;;;5076669;28;20042;-68
2023/09/21 06:41:12;;;;;;;8.18;4.03;;;;;;;;;;5054955;28;20426;-66
2023/09/21 06:43:44;;;;;;;7.38;3.47;;;;;;;;;;5074479;28;20051;-65
2023/09/21 06:46:09;;;;;;;8.55;3.90;;;;;;;;;;5071202;28;20099;-69
2023/09/21 06:48:37;;;;;;;7.57;3.72;;;;;;;;;;5073176;28;20823;-69
2023/09/21 06:51:04;;;;;;;7.93;4.00;;;;;;;;;;5077777;28;20354;-62
2023/09/21 06:53:31;;;;;;;8.27;3.90;;;;;;;;;;5078111;28;20016;-66
2023/09/21 06:55:56;;;;;;;9.30;4.00;;;;;;;;;;5056183;28;20096;-64
2023/09/21 06:58:22;;;;;;;7.93;4.70;;;;;;;;;;5076086;28;20031;-65
2023/09/21 07:00:49;;;;;;;7.40;3.88;;;;;;;;;;5061651;28;20987;-66
2023/09/21 07:03:17;;;;;;;9.35;4.30;;;;;;;;;;5087197;27;20039;-70
2023/09/21 07:05:46;;;;;;;8.40;3.80;;;;;;;;;;5056869;28;20085;-66
2023/09/21 07:08:14;;;;;;;7.22;4.03;;;;;;;;;;5056344;28;20470;-66
2023/09/21 07:10:39;;;;;;;7.68;3.80;;;;;;;;;;5077955;28;20017;-67
2023/09/21 07:13:05;;;;;;;7.50;4.27;;;;;;;;;;5068509;28;21192;-67
2023/09/21 07:15:30;;;;;;;9.70;3.70;;;;;;;;;;5053944;28;20035;-63
2023/09/21 07:17:58;;;;;;;8.40;4.15;;;;;;;;;;5071985;28;20375;-65
2023/09/21 07:20:26;;;;;;;6.38;4.35;;;;;;;;;;5068269;28;20184;-63
2023/09/21 07:22:53;;;;;;;7.80;4.40;;;;;;;;;;5076302;28;20676;-66
2023/09/21 07:25:19;;;;;;;7.00;3.47;;;;;;;;;;5074786;28;20052;-65
2023/09/21 07:27:47;;;;;;;9.32;4.05;;;;;;;;;;5076259;28;20754;-65
2023/09/21 07:30:15;;;;;;;8.18;3.80;;;;;;;;;;5078847;28;20428;-65
2023/09/21 07:32:45;;;;;;;7.68;4.03;;;;;;;;;;5054609;28;20016;-66
2023/09/21 07:35:11;;;;;;;10.05;4.05;;;;;;;;;;5077268;28;20042;-64
2023/09/21 07:37:36;;;;;;;10.70;4.68;;;;;;;;;;5059496;28;20020;-64
2023/09/21 07:40:06;;;;;;;9.40;4.90;;;;;;;;;;5077810;28;20031;-65
2023/09/21 07:42:31;;;;;;;9.40;4.03;;;;;;;;;;5075656;28;20016;-64
2023/09/21 07:44:57;;;;;;;8.23;4.82;;;;;;;;;;5055697;28;20698;-64
2023/09/21 07:47:22;;;;;;;8.67;3.93;;;;;;;;;;5075459;28;20044;-64
2023/09/21 07:49:48;;;;;;;8.00;4.40;;;;;;;;;;5076129;28;20274;-64
2023/09/21 07:52:17;;;;;;;9.27;4.30;;;;;;;;;;5078305;28;20724;-64
2023/09/21 07:54:43;;;;;;;7.65;4.50;;;;;;;;;;5077177;28;20565;-64
2023/09/21 07:57:10;;;;;;;9.10;4.17;;;;;;;;;;5058147;28;21389;-64
2023/09/21 07:59:36;;;;;;;8.18;4.13;;;;;;;;;;5078011;28;20071;-62
2023/09/21 08:02:01;;;;;;;7.93;4.30;;;;;;;;;;5057051;28;20111;-64
2023/09/21 08:04:28;;;;;;;9.50;4.27;;;;;;;;;;5083309;28;20101;-64
2023/09/21 08:06:53;;;;;;;7.28;4.35;;;;;;;;;;5073684;28;21620;-64
2023/09/21 08:09:18;;;;;;;7.90;3.90;;;;;;;;;;5066564;28;20073;-64
2023/09/21 08:11:51;;;;;;;9.50;4.68;;;;;;;;;;5076796;28;20361;-64
2023/09/21 08:14:16;;;;;;;9.88;4.18;;;;;;;;;;5059919;28;20032;-64
2023/09/21 08:16:42;;;;;;;11.20;4.40;;;;;;;;;;5072828;28;20031;-64
2023/09/21 08:19:07;;;;;;;7.90;3.73;;;;;;;;;;5077479;28;20775;-63
2023/09/21 08:21:36;;;;;;;9.82;3.60;;;;;;;;;;5080807;28;20346;-65
2023/09/21 08:24:04;;;;;;;7.63;3.08;;;;;;;;;;5092417;27;20115;-65
2023/09/21 08:26:30;;;;;;;5.70;2.88;;;;;;;;;;5084306;28;20077;-64
2023/09/21 08:28:59;;;;;;;8.60;2.67;;;;;;;;;;5081911;28;20036;-65
2023/09/21 08:31:29;;;;;;;7.50;3.17;;;;;;;;;;5081262;28;20012;-64
2023/09/21 08:33:55;;;;;;;9.27;3.33;;;;;;;;;;5081689;28;20023;-65
2023/09/21 08:36:20;;;;;;;7.05;3.00;;;;;;;;;;5062375;28;20028;-64
2023/09/21 08:38:45;;;;;;;8.17;3.00;;;;;;;;;;5055035;28;20027;-65
2023/09/21 08:41:13;;;;;;;7.43;3.20;;;;;;;;;;5059407;28;20301;-65
2023/09/21 08:43:40;;;;;;;8.88;3.17;;;;;;;;;;5064055;28;20012;-66
2023/09/21 08:46:06;;;;;;;8.75;2.97;;;;;;;;;;5079887;28;20098;-66
2023/09/21 08:48:32;;;;;;;7.82;3.28;;;;;;;;;;5052356;28;20664;-63
2023/09/21 08:51:00;;;;;;;7.88;3.28;;;;;;;;;;5073033;28;20103;-66
2023/09/21 08:53:26;;;;;;;7.60;2.92;;;;;;;;;;5081482;28;20118;-66
2023/09/21 08:55:52;;;;;;;9.50;3.45;;;;;;;;;;5079968;28;20479;-66
2023/09/21 08:58:23;;;;;;;9.52;3.35;;;;;;;;;;5077704;28;20024;-66
2023/09/21 09:00:51;;;;;;;9.13;2.92;;;;;;;;;;5063341;28;20036;-65
2023/09/21 09:03:19;;;;;;;6.20;3.10;;;;;;;;;;5075627;28;20024;-67
2023/09/21 09:05:44;;;;;;;6.55;2.80;;;;;;;;;;5074092;28;20063;-68
2023/09/21 09:08:11;;;;;;;5.60;2.58;;;;;;;;;;5081423;28;20037;-67
2023/09/21 09:10:40;;;;;;;7.93;3.03;;;;;;;;;;5062787;28;20062;-67
2023/09/21 09:13:06;;;;;;;6.07;2.50;;;;;;;;;;5085575;28;20052;-66
2023/09/21 09:15:35;;;;;;;5.05;2.15;;;;;;;;;;5079618;28;20254;-66
2023/09/21 09:18:04;;;;;;;9.60;2.90;;;;;;;;;;5056628;28;20028;-64
2023/09/21 09:20:30;;;;;;;7.20;2.92;;;;;;;;;;5074676;28;20246;-66
2023/09/21 09:22:55;;;;;;;6.47;2.38;;;;;;;;;;5052409;28;20020;-64
2023/09/21 09:25:24;;;;;;;7.05;2.45;;;;;;;;;;5076238;28;20387;-63
2023/09/21 09:27:51;;;;;;;7.63;2.67;;;;;;;;;;5073794;28;20574;-63
2023/09/21 09:30:20;;;;;;;6.43;2.38;;;;;;;;;;5082084;28;20111;-63
2023/09/21 09:32:47;;;;;;;6.93;2.58;;;;;;;;;;5066262;28;20024;-63
2023/09/21 09:35:14;;;;;;;6.55;2.28;;;;;;;;;;5077801;28;20025;-63
2023/09/21 09:37:40;;;;;;;8.30;2.60;;;;;;;;;;5083336;28;20008;-63
2023/09/21 09:40:12;;;;;;;6.43;2.67;;;;;;;;;;5082192;28;20436;-63
2023/09/21 09:42:43;;;;;;;7.03;2.53;;;;;;;;;;5078907;28;20024;-63
2023/09/21 09:45:20;;;;;;;7.05;2.60;;;;;;;;;;5075943;28;20124;-62
2023/09/21 09:47:55;;;;;;;5.93;1.88;;;;;;;;;;5062383;28;20050;-63
2023/09/21 09:50:24;;;;;;;10.43;2.97;;;;;;;;;;5107563;27;20032;-63
2023/09/21 09:53:03;;;;;;;6.55;2.03;;;;;;;;;;5081009;28;20030;-63
2023/09/21 09:55:35;;;;;;;8.10;2.67;;;;;;;;;;5079823;28;20039;-62
2023/09/21 09:58:01;;;;;;;8.52;2.22;;;;;;;;;;5075583;28;20162;-60
2023/09/21 10:00:27;;;;;;;8.13;2.28;;;;;;;;;;5075767;28;20492;-61
2023/09/21 10:02:54;;;;;;;7.35;2.08;;;;;;;;;;5073416;28;20436;-61
2023/09/21 10:05:20;;;;;;;8.30;2.92;;;;;;;;;;5093984;27;20044;-61
2023/09/21 10:07:48;;;;;;;7.80;2.45;;;;;;;;;;5074623;28;20020;-61
2023/09/21 10:10:15;;;;;;;8.45;2.40;;;;;;;;;;5080623;28;20035;-61
2023/09/21 10:12:42;;;;;;;9.52;2.67;;;;;;;;;;5069967;28;20107;-65
2023/09/21 10:15:12;;;;;;;6.60;2.53;;;;;;;;;;5074272;28;20050;-60
2023/09/21 10:17:37;;;;;;;7.35;2.42;;;;;;;;;;5075191;28;20034;-60
2023/09/21 10:20:11;;;;;;;8.10;2.40;;;;;;;;;;5073119;28;20352;-62
2023/09/21 10:22:36;;;;;;;6.25;2.30;;;;;;;;;;5104504;27;20024;-60
2023/09/21 10:25:03;;;;;;;6.28;2.33;;;;;;;;;;5078606;28;20018;-60
2023/09/21 10:27:28;;;;;;;7.30;1.90;;;;;;;;;;5084946;28;20033;-59
2023/09/21 10:30:07;;;;;;;8.02;2.53;;;;;;;;;;5072255;28;20020;-60
2023/09/21 10:32:47;;;;;;;7.22;2.30;;;;;;;;;;5075227;28;20024;-63
2023/09/21 10:35:21;;;;;;;8.15;2.53;;;;;;;;;;5074803;28;20070;-62
2023/09/21 10:37:49;;;;;;;7.13;2.30;;;;;;;;;;5070548;28;20094;-61
2023/09/21 10:40:26;;;;;;;7.57;2.60;;;;;;;;;;5069201;28;20669;-59
2023/09/21 10:42:52;;;;;;;7.32;2.65;;;;;;;;;;5067617;28;20021;-59
2023/09/21 10:45:18;;;;;;;9.17;3.10;;;;;;;;;;5077650;28;20028;-60
2023/09/21 10:47:51;;;;;;;10.60;2.90;;;;;;;;;;5072796;28;21009;-59
2023/09/21 10:50:18;;;;;;;7.10;2.72;;;;;;;;;;5077552;28;20009;-59
2023/09/21 10:52:45;;;;;;;8.10;3.00;;;;;;;;;;5059516;28;20060;-60
2023/09/21 10:55:12;;;;;;;10.65;3.00;;;;;;;;;;5079852;28;20020;-60
2023/09/21 10:57:38;;;;;;;6.97;2.50;;;;;;;;;;5064561;28;20028;-59
2023/09/21 11:00:08;;;;;;;7.38;2.58;;;;;;;;;;5076039;28;20012;-59
2023/09/21 11:02:34;;;;;;;9.93;2.30;;;;;;;;;;5059631;28;20100;-59
2023/09/21 11:05:02;;;;;;;7.07;2.63;;;;;;;;;;5070885;28;20017;-60
2023/09/21 11:07:29;;;;;;;7.35;2.38;;;;;;;;;;5075531;28;20020;-60
2023/09/21 11:09:54;;;;;;;6.38;2.38;;;;;;;;;;5076276;28;20082;-60
2023/09/21 11:12:21;;;;;;;7.40;2.42;;;;;;;;;;5072772;28;20431;-60
2023/09/21 11:14:48;;;;;;;7.10;2.15;;;;;;;;;;5079642;28;20062;-61
2023/09/21 11:17:16;;;;;;;8.55;2.50;;;;;;;;;;5079210;28;20060;-61
2023/09/21 11:19:42;;;;;;;10.13;2.40;;;;;;;;;;5062191;28;20021;-61
2023/09/21 11:22:10;;;;;;;7.75;2.20;;;;;;;;;;5073843;28;20016;-60
2023/09/21 11:24:38;;;;;;;8.20;2.60;;;;;;;;;;5062256;28;20020;-61
2023/09/21 11:27:06;;;;;;;6.80;2.07;;;;;;;;;;5079026;28;20032;-61
2023/09/21 11:29:33;;;;;;;8.82;2.42;;;;;;;;;;5053376;28;20032;-61
2023/09/21 11:31:58;;;;;;;9.27;2.03;;;;;;;;;;5060271;28;20023;-60
2023/09/21 11:34:24;;;;;;;8.00;2.70;;;;;;;;;;5060357;28;20888;-61
2023/09/21 11:36:50;;;;;;;7.57;2.10;;;;;;;;;;5071572;28;20095;-64
2023/09/21 11:39:16;;;;;;;5.82;2.08;;;;;;;;;;5068240;28;20051;-65
2023/09/21 11:41:44;;;;;;;7.85;2.40;;;;;;;;;;5072356;28;20150;-64
2023/09/21 11:44:10;;;;;;;9.88;2.10;;;;;;;;;;5074117;28;20028;-63
2023/09/21 11:46:35;;;;;;;5.75;1.98;;;;;;;;;;5060255;28;20096;-63
2023/09/21 11:49:01;;;;;;;7.93;2.15;;;;;;;;;;5058982;28;20027;-63
2023/09/21 11:51:29;;;;;;;7.20;1.90;;;;;;;;;;5079042;28;20437;-63
2023/09/21 11:53:58;;;;;;;9.02;2.10;;;;;;;;;;5075051;28;20263;-62
2023/09/21 11:56:26;;;;;;;10.75;2.38;;;;;;;;;;5081866;28;20024;-64
2023/09/21 11:58:54;;;;;;;9.25;2.40;;;;;;;;;;5052859;28;20066;-65
2023/09/21 12:01:19;;;;;;;10.63;2.47;;;;;;;;;;5072546;28;20097;-63
2023/09/21 12:03:46;;;;;;;6.80;2.03;;;;;;;;;;5060766;28;20310;-64
2023/09/21 12:06:16;;;;;;;6.75;1.98;;;;;;;;;;5061691;28;20068;-64
2023/09/21 12:08:41;;;;;;;7.22;2.13;;;;;;;;;;5067441;28;20065;-64
2023/09/21 12:11:07;;;;;;;7.53;1.93;;;;;;;;;;5061097;28;20030;-63
2023/09/21 12:13:34;;;;;;;9.88;2.15;;;;;;;;;;5064056;28;20020;-62
2023/09/21 12:16:00;;;;;;;7.50;2.00;;;;;;;;;;5058687;28;20112;-64
2023/09/21 12:18:26;;;;;;;9.60;2.40;;;;;;;;;;5072310;28;20115;-62
2023/09/21 12:20:56;;;;;;;7.47;2.67;;;;;;;;;;5066287;28;20329;-64
2023/09/21 12:23:22;;;;;;;8.25;2.88;;;;;;;;;;5078119;28;21262;-63
2023/09/21 12:25:47;;;;;;;8.07;2.88;;;;;;;;;;5073882;28;20032;-63
2023/09/21 12:28:13;;;;;;;9.07;2.83;;;;;;;;;;5063851;28;20084;-63
2023/09/21 12:30:41;;;;;;;7.97;3.50;;;;;;;;;;5077547;28;20710;-64
2023/09/21 12:33:06;;;;;;;9.77;3.13;;;;;;;;;;5059739;28;20843;-65
2023/09/21 12:35:35;;;;;;;8.23;2.97;;;;;;;;;;5078533;28;20016;-64
2023/09/21 12:38:02;;;;;;;7.97;3.45;;;;;;;;;;5057122;28;20983;-65
2023/09/21 12:40:28;;;;;;;8.55;3.58;;;;;;;;;;5051377;28;20019;-64
2023/09/21 12:42:53;;;;;;;9.13;3.40;;;;;;;;;;5078821;28;20024;-64
2023/09/21 12:45:21;;;;;;;11.60;3.45;;;;;;;;;;5070712;28;20522;-65
2023/09/21 12:47:46;;;;;;;10.50;3.92;;;;;;;;;;5075395;28;20040;-64
2023/09/21 12:50:15;;;;;;;10.48;3.95;;;;;;;;;;5074968;28;21055;-65
2023/09/21 12:52:44;;;;;;;9.32;3.60;;;;;;;;;;5054344;28;20972;-62
2023/09/21 12:55:13;;;;;;;11.27;3.78;;;;;;;;;;5074205;28;20012;-64
2023/09/21 12:57:41;;;;;;;12.77;3.83;;;;;;;;;;5076442;28;20106;-66
2023/09/21 13:00:11;;;;;;;12.00;3.58;;;;;;;;;;5063237;28;20012;-66
2023/09/21 13:02:37;;;;;;;9.98;3.35;;;;;;;;;;5074851;28;20020;-67
2023/09/21 13:05:03;;;;;;;9.32;3.15;;;;;;;;;;5055161;28;20491;-68
2023/09/21 13:07:28;;;;;;;10.88;3.70;;;;;;;;;;5071272;28;20162;-66
2023/09/21 13:09:53;;;;;;;10.40;3.43;;;;;;;;;;5059136;28;20031;-66
2023/09/21 13:12:19;;;;;;;8.70;2.92;;;;;;;;;;5068565;28;20323;-66
2023/09/21 13:14:44;;;;;;;9.90;3.20;;;;;;;;;;5077554;28;20087;-66
2023/09/21 13:17:10;;;;;;;7.30;3.17;;;;;;;;;;5072659;28;20262;-66
2023/09/21 13:19:36;;;;;;;6.57;3.30;;;;;;;;;;5059772;28;20080;-66
2023/09/21 13:22:04;;;;;;;10.13;3.78;;;;;;;;;;5077791;28;20649;-66
2023/09/21 13:24:29;;;;;;;10.23;3.60;;;;;;;;;;5060503;28;20101;-65
2023/09/21 13:26:54;;;;;;;9.00;3.47;;;;;;;;;;5064248;28;20034;-65
2023/09/21 13:29:20;;;;;;;10.03;3.90;;;;;;;;;;5059297;28;20090;-64
2023/09/21 13:31:45;;;;;;;7.95;3.30;;;;;;;;;;5079928;28;20074;-65
2023/09/21 13:34:10;;;;;;;8.75;3.45;;;;;;;;;;5062105;28;20653;-64
2023/09/21 13:36:38;;;;;;;8.57;3.80;;;;;;;;;;5058063;28;20021;-64
2023/09/21 13:39:06;;;;;;;10.32;3.45;;;;;;;;;;5074055;28;21265;-62
2023/09/21 13:41:36;;;;;;;8.18;3.25;;;;;;;;;;5074182;28;20013;-63
2023/09/21 13:44:03;;;;;;;13.68;3.90;;;;;;;;;;5074573;28;20020;-66
2023/09/21 13:46:29;;;;;;;10.57;3.92;;;;;;;;;;5067225;28;20111;-64
2023/09/21 13:48:56;;;;;;;10.48;3.92;;;;;;;;;;5058624;28;20809;-64
2023/09/21 13:51:22;;;;;;;7.47;3.10;;;;;;;;;;5082602;28;20394;-64
2023/09/21 13:53:47;;;;;;;6.72;3.72;;;;;;;;;;5057901;28;20020;-62
2023/09/21 13:56:16;;;;;;;11.07;3.58;;;;;;;;;;5078304;28;20069;-64
2023/09/21 13:58:43;;;;;;;10.65;3.70;;;;;;;;;;5070537;28;20034;-65
2023/09/21 14:01:11;;;;;;;8.30;3.85;;;;;;;;;;5067235;28;20723;-64
2023/09/21 14:03:38;;;;;;;9.10;3.92;;;;;;;;;;5073902;28;20146;-65
2023/09/21 14:06:03;;;;;;;8.57;3.63;;;;;;;;;;5073719;28;20016;-65
2023/09/21 14:08:31;;;;;;;11.70;3.73;;;;;;;;;;5058940;28;20039;-65
2023/09/21 14:10:59;;;;;;;9.25;3.65;;;;;;;;;;5072819;28;20621;-65
2023/09/21 14:13:24;;;;;;;9.32;3.70;;;;;;;;;;5063048;28;20093;-66
2023/09/21 14:15:49;;;;;;;8.70;3.70;;;;;;;;;;5064518;28;20020;-65
2023/09/21 14:18:14;;;;;;;8.15;3.35;;;;;;;;;;5070598;28;20020;-65
2023/09/21 14:20:40;;;;;;;13.18;4.25;;;;;;;;;;5071824;28;20029;-63
2023/09/21 14:23:05;;;;;;;12.10;4.28;;;;;;;;;;5078646;28;20482;-63
2023/09/21 14:25:33;;;;;;;8.40;4.00;;;;;;;;;;5083491;28;20025;-65
2023/09/21 14:28:00;;;;;;;8.82;4.30;;;;;;;;;;5084533;28;20963;-65
2023/09/21 14:30:28;;;;;;;11.52;4.88;;;;;;;;;;5076592;28;20032;-63
2023/09/21 14:32:54;;;;;;;11.20;3.60;;;;;;;;;;5079877;28;20102;-62
2023/09/21 14:35:19;;;;;;;8.63;3.53;;;;;;;;;;5076737;28;20514;-66
2023/09/21 14:37:44;;;;;;;9.65;4.07;;;;;;;;;;5101569;27;20017;-62
2023/09/21 14:40:10;;;;;;;7.90;3.83;;;;;;;;;;5063149;28;20116;-63